Time;durP1;ratioP1;P1;durP2;ratioP2;P2;SDS_P1;SDS_P2;PMS_P1;PMS_P2;Temp;Humidity;BMP_temperature;BMP_pressure;BME280_temperature;BME280_humidity;BME280_pressure;Samples;Min_cycle;Max_cycle;Signal;HPM_P1;HPM_P2
2022/10/14 00:01:20;;;;;;;16.57;14.57;;;17.40;99.90;;;;;;5024089;28;20196;-70
2022/10/14 00:03:48;;;;;;;15.63;13.90;;;17.40;99.90;;;;;;5041076;28;20269;-70
2022/10/14 00:06:29;;;;;;;17.27;14.73;;;17.40;99.90;;;;;;5007560;28;20196;-70
2022/10/14 00:09:01;;;;;;;15.83;14.13;;;17.40;99.90;;;;;;5022927;28;20241;-70
2022/10/14 00:11:31;;;;;;;17.70;14.37;;;17.40;99.90;;;;;;5029538;28;20196;-70
2022/10/14 00:14:02;;;;;;;18.33;13.53;;;17.40;99.90;;;;;;5045113;28;20192;-70
2022/10/14 00:16:35;;;;;;;16.60;13.67;;;17.40;99.90;;;;;;5049610;28;20187;-70
2022/10/14 00:19:04;;;;;;;15.27;13.67;;;17.40;99.90;;;;;;5038917;28;20207;-70
2022/10/14 00:21:32;;;;;;;18.33;13.53;;;17.40;99.90;;;;;;5027367;28;20246;-70
2022/10/14 00:23:58;;;;;;;20.73;14.13;;;17.40;99.90;;;;;;5036829;28;20235;-70
2022/10/14 00:26:30;;;;;;;17.43;13.50;;;17.40;99.90;;;;;;5038816;28;20799;-70
2022/10/14 00:28:58;;;;;;;18.97;13.37;;;17.40;99.90;;;;;;5025352;28;20195;-70
2022/10/14 00:31:28;;;;;;;19.00;14.43;;;17.40;99.90;;;;;;5027188;28;20203;-70
2022/10/14 00:33:54;;;;;;;21.33;13.47;;;17.40;99.90;;;;;;5028189;28;20707;-70
2022/10/14 00:36:23;;;;;;;15.03;13.53;;;17.30;99.90;;;;;;5044695;28;20506;-70
2022/10/14 00:38:52;;;;;;;17.30;13.37;;;17.40;99.90;;;;;;5027234;28;20223;-70
2022/10/14 00:41:27;;;;;;;15.63;13.37;;;17.30;99.90;;;;;;5028482;28;20185;-70
2022/10/14 00:44:26;;;;;;;16.90;13.47;;;17.30;99.90;;;;;;5018447;28;20317;-70
2022/10/14 00:46:53;;;;;;;16.73;13.30;;;17.30;99.90;;;;;;5031231;28;20196;-70
2022/10/14 00:49:38;;;;;;;15.80;13.73;;;17.40;99.90;;;;;;5023957;28;20191;-70
2022/10/14 00:52:18;;;;;;;16.07;13.37;;;17.30;99.90;;;;;;5026929;28;20275;-70
2022/10/14 00:54:55;;;;;;;15.50;12.67;;;17.30;99.90;;;;;;5027593;28;20701;-70
2022/10/14 00:57:24;;;;;;;15.60;13.67;;;17.30;99.90;;;;;;5039780;28;20195;-70
2022/10/14 00:59:55;;;;;;;18.33;13.97;;;17.30;99.90;;;;;;5023640;28;20211;-70
2022/10/14 01:02:22;;;;;;;15.30;13.77;;;17.30;99.90;;;;;;5041155;28;20605;-70
2022/10/14 01:04:48;;;;;;;14.43;12.93;;;17.30;99.90;;;;;;5018105;28;20203;-70
2022/10/14 01:07:41;;;;;;;16.33;14.00;;;17.40;99.90;;;;;;5027271;28;20194;-70
2022/10/14 01:10:30;;;;;;;15.70;14.00;;;17.30;99.90;;;;;;5037404;28;20891;-70
2022/10/14 01:13:26;;;;;;;16.97;14.03;;;17.30;99.90;;;;;;5021656;28;20265;-70
2022/10/14 01:16:15;;;;;;;17.33;13.90;;;17.30;99.90;;;;;;5027465;28;20206;-70
2022/10/14 01:18:59;;;;;;;17.73;14.33;;;17.30;99.90;;;;;;5045240;28;20214;-70
2022/10/14 01:22:00;;;;;;;15.93;13.80;;;17.20;99.90;;;;;;5019776;28;20187;-70
2022/10/14 01:25:01;;;;;;;15.40;13.87;;;17.20;99.90;;;;;;5019915;28;20197;-70
2022/10/14 01:28:10;;;;;;;14.93;13.33;;;17.20;99.90;;;;;;4979305;28;20200;-70
2022/10/14 01:30:57;;;;;;;18.30;14.10;;;17.20;99.90;;;;;;5029499;28;20197;-70
2022/10/14 01:33:29;;;;;;;15.97;14.33;;;17.20;99.90;;;;;;5054049;28;20203;-70
2022/10/14 01:36:12;;;;;;;19.20;14.07;;;17.20;99.90;;;;;;5027642;28;20582;-70
2022/10/14 01:38:55;;;;;;;18.47;14.10;;;17.20;99.90;;;;;;5035405;28;20193;-70
2022/10/14 01:41:51;;;;;;;17.77;14.83;;;17.20;99.90;;;;;;5039489;28;20199;-70
2022/10/14 01:44:22;;;;;;;17.30;14.40;;;17.20;99.90;;;;;;5013182;28;20213;-70
2022/10/14 01:46:54;;;;;;;21.20;14.60;;;17.20;99.90;;;;;;5045046;28;20180;-70
2022/10/14 01:49:48;;;;;;;22.03;14.23;;;17.20;99.90;;;;;;5035850;28;20241;-70
2022/10/14 01:52:21;;;;;;;18.60;16.07;;;17.20;99.90;;;;;;5023507;28;20188;-70
2022/10/14 01:54:53;;;;;;;17.30;15.47;;;17.10;99.90;;;;;;5027460;28;20196;-70
2022/10/14 01:57:28;;;;;;;16.87;14.67;;;17.10;99.90;;;;;;5027600;28;20685;-70
2022/10/14 01:59:57;;;;;;;16.20;14.50;;;17.20;99.90;;;;;;5023838;28;20200;-70
2022/10/14 02:02:24;;;;;;;20.23;15.27;;;17.10;99.90;;;;;;5047139;28;20212;-70
2022/10/14 02:04:51;;;;;;;16.43;14.83;;;17.10;99.90;;;;;;5044756;28;20270;-70
2022/10/14 02:07:44;;;;;;;16.23;14.63;;;17.20;99.90;;;;;;5046122;28;20271;-70
2022/10/14 02:10:37;;;;;;;16.63;14.33;;;17.20;99.90;;;;;;5044079;28;20196;-70
2022/10/14 02:13:14;;;;;;;20.20;15.40;;;17.20;99.90;;;;;;5047102;28;20195;-70
2022/10/14 02:16:03;;;;;;;18.23;15.90;;;17.20;99.90;;;;;;5029572;28;20197;-70
2022/10/14 02:18:50;;;;;;;17.93;16.10;;;17.20;99.90;;;;;;5035041;28;20250;-70
2022/10/14 02:21:32;;;;;;;17.80;15.40;;;17.20;99.90;;;;;;5026351;28;20226;-70
2022/10/14 02:24:14;;;;;;;17.10;15.30;;;17.20;99.90;;;;;;5027136;28;20220;-70
2022/10/14 02:26:44;;;;;;;17.17;15.40;;;17.20;99.90;;;;;;5023638;28;20648;-70
2022/10/14 02:29:12;;;;;;;17.17;15.07;;;17.20;99.90;;;;;;5020195;28;20189;-70
2022/10/14 02:31:41;;;;;;;17.90;16.00;;;17.20;99.90;;;;;;5032963;28;20843;-70
2022/10/14 02:34:17;;;;;;;17.07;15.33;;;17.20;99.90;;;;;;5049950;28;20206;-70
2022/10/14 02:36:45;;;;;;;17.47;15.60;;;17.20;99.90;;;;;;5038397;28;20198;-70
2022/10/14 02:39:16;;;;;;;17.20;15.40;;;17.20;99.90;;;;;;5034769;28;20202;-70
2022/10/14 02:41:43;;;;;;;18.63;14.93;;;17.20;99.90;;;;;;5021003;28;20196;-70
2022/10/14 02:44:10;;;;;;;15.40;13.80;;;17.20;99.90;;;;;;5026195;28;20211;-70
2022/10/14 02:46:40;;;;;;;17.30;14.20;;;17.20;99.90;;;;;;5041828;28;20713;-70
2022/10/14 02:49:06;;;;;;;17.30;14.77;;;17.10;99.90;;;;;;5052420;28;20239;-70
2022/10/14 02:51:33;;;;;;;16.93;14.50;;;17.10;99.90;;;;;;5024688;28;22133;-70
2022/10/14 02:54:01;;;;;;;17.37;14.50;;;17.10;99.90;;;;;;5040590;28;20192;-70
2022/10/14 02:56:27;;;;;;;18.23;15.40;;;17.10;99.90;;;;;;5033890;28;20210;-70
2022/10/14 02:58:53;;;;;;;17.37;14.70;;;17.10;99.90;;;;;;5030160;28;20195;-70
2022/10/14 03:01:20;;;;;;;15.97;14.33;;;17.10;99.90;;;;;;5032874;28;20207;-70
2022/10/14 03:03:48;;;;;;;20.23;14.43;;;17.00;99.90;;;;;;5028901;28;20623;-70
2022/10/14 03:06:14;;;;;;;16.47;14.80;;;17.10;99.90;;;;;;5036094;28;20180;-70
2022/10/14 03:08:40;;;;;;;16.47;14.70;;;17.10;99.90;;;;;;5028570;28;20188;-70
2022/10/14 03:11:07;;;;;;;17.63;13.57;;;17.10;99.90;;;;;;5021408;28;20184;-70
2022/10/14 03:13:34;;;;;;;15.70;14.10;;;17.10;99.90;;;;;;5012250;28;20204;-70
2022/10/14 03:16:00;;;;;;;20.33;14.70;;;17.10;99.90;;;;;;5023677;28;20192;-70
2022/10/14 03:18:26;;;;;;;16.33;14.63;;;17.10;99.90;;;;;;5037313;28;20223;-70
2022/10/14 03:20:53;;;;;;;15.50;14.00;;;17.10;99.90;;;;;;5007081;28;20219;-70
2022/10/14 03:23:20;;;;;;;16.23;13.70;;;17.10;99.90;;;;;;5027053;28;20216;-70
2022/10/14 03:25:46;;;;;;;17.13;14.27;;;17.00;99.90;;;;;;5027112;28;20188;-70
2022/10/14 03:28:14;;;;;;;16.57;14.77;;;17.10;99.90;;;;;;5039300;28;20193;-70
2022/10/14 03:30:42;;;;;;;15.83;14.13;;;17.00;99.90;;;;;;5022492;28;20275;-70
2022/10/14 03:33:09;;;;;;;22.37;15.17;;;17.10;99.90;;;;;;5041729;28;20211;-70
2022/10/14 03:35:35;;;;;;;16.53;14.80;;;17.10;99.90;;;;;;5029763;28;20244;-70
2022/10/14 03:38:02;;;;;;;16.30;14.73;;;17.10;99.90;;;;;;5028871;28;20630;-70
2022/10/14 03:40:30;;;;;;;18.20;14.70;;;17.10;99.90;;;;;;5028789;28;20602;-70
2022/10/14 03:43:00;;;;;;;15.77;14.10;;;17.20;99.90;;;;;;5030141;28;20243;-70
2022/10/14 03:45:27;;;;;;;14.90;13.40;;;17.10;99.90;;;;;;5032988;28;20193;-70
2022/10/14 03:47:54;;;;;;;19.00;13.80;;;17.20;99.90;;;;;;5033057;28;20196;-70
2022/10/14 03:50:21;;;;;;;18.70;13.43;;;17.10;99.90;;;;;;5028951;28;20188;-70
2022/10/14 03:52:48;;;;;;;18.53;14.27;;;17.10;99.90;;;;;;5032396;28;20196;-70
2022/10/14 03:55:15;;;;;;;16.97;14.70;;;17.10;99.90;;;;;;5024140;28;20275;-70
2022/10/14 03:57:41;;;;;;;17.63;13.97;;;17.10;99.90;;;;;;5027454;28;20184;-70
2022/10/14 04:00:08;;;;;;;17.00;13.50;;;17.10;99.90;;;;;;5020384;28;20203;-70
2022/10/14 04:02:35;;;;;;;16.10;13.23;;;17.10;99.90;;;;;;5005841;28;20609;-70
2022/10/14 04:05:01;;;;;;;16.77;13.43;;;17.10;99.90;;;;;;5023364;28;20184;-70
2022/10/14 04:07:30;;;;;;;15.47;13.00;;;17.00;99.90;;;;;;5028897;28;20199;-70
2022/10/14 04:09:57;;;;;;;14.30;11.97;;;17.00;99.90;;;;;;5044374;28;20188;-70
2022/10/14 04:12:24;;;;;;;14.80;12.70;;;17.00;99.90;;;;;;5011310;28;20784;-70
2022/10/14 04:14:50;;;;;;;16.63;12.87;;;17.00;99.90;;;;;;5031986;28;20180;-70
2022/10/14 04:17:16;;;;;;;14.00;12.33;;;17.00;99.90;;;;;;5036265;28;20784;-70
2022/10/14 04:19:42;;;;;;;13.13;11.73;;;17.00;99.90;;;;;;5029010;28;20282;-70
2022/10/14 04:22:09;;;;;;;15.13;12.50;;;17.00;99.90;;;;;;5027583;28;20192;-70
2022/10/14 04:24:35;;;;;;;16.07;11.97;;;17.00;99.90;;;;;;5041759;28;20200;-70
2022/10/14 04:27:03;;;;;;;15.53;12.67;;;17.00;99.90;;;;;;5039609;28;20238;-70
2022/10/14 04:29:29;;;;;;;13.27;11.90;;;17.00;99.90;;;;;;5010896;28;20196;-70
2022/10/14 04:31:55;;;;;;;12.63;11.33;;;17.00;99.90;;;;;;5028214;28;20196;-70
2022/10/14 04:34:22;;;;;;;13.93;11.30;;;17.00;99.90;;;;;;5027303;28;20215;-70
2022/10/14 04:36:52;;;;;;;14.60;12.03;;;17.10;99.90;;;;;;5045921;28;20196;-70
2022/10/14 04:39:19;;;;;;;16.50;10.73;;;17.10;99.90;;;;;;5036619;28;20192;-70
2022/10/14 04:41:47;;;;;;;12.43;11.13;;;17.10;99.90;;;;;;5025745;28;20235;-70
2022/10/14 04:44:15;;;;;;;13.10;11.13;;;17.10;99.90;;;;;;5051180;28;20268;-70
2022/10/14 04:46:41;;;;;;;12.27;10.97;;;17.20;99.90;;;;;;5041596;28;20494;-70
2022/10/14 04:49:11;;;;;;;12.07;10.07;;;17.20;99.90;;;;;;5038486;28;20196;-70
2022/10/14 04:51:37;;;;;;;11.67;10.53;;;17.20;99.90;;;;;;5024457;28;20279;-70
2022/10/14 04:54:05;;;;;;;12.17;10.43;;;17.20;99.90;;;;;;5021682;28;20231;-70
2022/10/14 04:56:33;;;;;;;10.83;9.73;;;17.30;99.90;;;;;;5004913;28;20203;-70
2022/10/14 04:58:59;;;;;;;30.30;10.73;;;17.30;99.90;;;;;;5020170;28;20250;-70
2022/10/14 05:01:25;;;;;;;69.23;13.70;;;17.30;99.90;;;;;;5023028;28;20271;-70
2022/10/14 05:03:52;;;;;;;55.43;13.40;;;17.30;99.90;;;;;;5054860;28;20619;-70
2022/10/14 05:06:20;;;;;;;76.20;14.23;;;17.40;99.90;;;;;;5041141;28;20187;-70
2022/10/14 05:08:46;;;;;;;103.10;15.27;;;17.40;99.90;;;;;;5043745;28;20222;-70
2022/10/14 05:11:15;;;;;;;37.57;11.87;;;17.40;99.90;;;;;;5011936;28;20192;-70
2022/10/14 05:13:43;;;;;;;129.33;14.87;;;17.40;99.90;;;;;;5032050;28;20585;-70
2022/10/14 05:16:12;;;;;;;133.00;16.77;;;17.50;99.90;;;;;;5022412;28;20294;-70
2022/10/14 05:18:39;;;;;;;116.73;16.50;;;17.50;99.90;;;;;;5035013;28;20191;-70
2022/10/14 05:21:05;;;;;;;78.30;15.03;;;17.60;99.90;;;;;;5035220;28;20201;-70
2022/10/14 05:23:34;;;;;;;54.63;13.43;;;17.60;99.90;;;;;;5039105;28;20239;-70
2022/10/14 05:26:01;;;;;;;57.07;13.60;;;17.80;99.90;;;;;;5038944;28;20287;-70
2022/10/14 05:28:27;;;;;;;48.63;12.70;;;17.80;99.90;;;;;;5026906;28;20713;-70
2022/10/14 05:30:54;;;;;;;37.20;12.23;;;17.90;99.90;;;;;;5042162;28;20208;-70
2022/10/14 05:33:20;;;;;;;35.87;12.07;;;17.90;99.90;;;;;;5025867;28;20188;-70
2022/10/14 05:35:46;;;;;;;48.37;11.77;;;17.90;99.90;;;;;;5051296;28;20190;-70
2022/10/14 05:38:13;;;;;;;49.00;12.27;;;17.90;99.90;;;;;;5032227;28;20684;-70
2022/10/14 05:40:39;;;;;;;44.80;12.23;;;18.00;99.90;;;;;;5028026;28;20209;-70
2022/10/14 05:43:06;;;;;;;27.77;11.70;;;18.00;99.90;;;;;;5030810;28;20223;-70
2022/10/14 05:45:32;;;;;;;22.27;11.00;;;18.10;99.90;;;;;;5024218;28;20283;-70
2022/10/14 05:47:58;;;;;;;13.80;11.77;;;18.20;99.90;;;;;;5043826;28;20255;-70
2022/10/14 05:50:24;;;;;;;14.73;12.10;;;18.20;99.90;;;;;;5022893;28;20180;-70
2022/10/14 05:52:51;;;;;;;20.93;11.97;;;18.20;99.90;;;;;;5029809;28;20213;-70
2022/10/14 05:55:17;;;;;;;22.57;12.63;;;18.30;99.90;;;;;;5030087;28;20215;-70
2022/10/14 05:57:43;;;;;;;15.37;13.30;;;18.30;99.90;;;;;;5023649;28;20204;-70
2022/10/14 06:00:12;;;;;;;14.20;12.53;;;18.30;99.90;;;;;;5026414;28;20265;-70
2022/10/14 06:02:39;;;;;;;16.00;13.53;;;18.30;99.90;;;;;;5031016;28;20218;-70
2022/10/14 06:05:10;;;;;;;15.83;12.70;;;18.40;99.90;;;;;;5045826;28;20239;-70
2022/10/14 06:07:36;;;;;;;19.53;12.93;;;18.40;99.90;;;;;;5040739;28;20198;-70
2022/10/14 06:10:03;;;;;;;15.13;13.50;;;18.40;99.90;;;;;;5034954;28;20645;-70
2022/10/14 06:12:31;;;;;;;15.70;13.60;;;18.50;99.90;;;;;;5030144;28;20243;-70
2022/10/14 06:15:00;;;;;;;14.67;13.17;;;18.50;99.90;;;;;;5029322;28;20204;-70
2022/10/14 06:17:28;;;;;;;15.57;13.20;;;18.50;99.90;;;;;;5020450;28;20199;-70
2022/10/14 06:19:54;;;;;;;15.20;13.70;;;18.60;99.90;;;;;;5040105;28;20298;-70
2022/10/14 06:22:20;;;;;;;15.07;13.57;;;18.60;99.90;;;;;;5015535;28;20642;-70
2022/10/14 06:24:47;;;;;;;15.20;13.23;;;18.70;99.90;;;;;;5033591;28;20228;-70
2022/10/14 06:27:13;;;;;;;15.47;12.90;;;18.70;99.90;;;;;;4996725;28;20280;-70
2022/10/14 06:29:39;;;;;;;17.70;13.40;;;18.80;99.90;;;;;;5020069;28;20196;-68
2022/10/14 06:32:08;;;;;;;13.37;11.90;;;18.80;99.90;;;;;;5023044;28;20189;-70
2022/10/14 06:34:35;;;;;;;13.50;12.20;;;18.80;99.90;;;;;;5049396;28;20196;-70
2022/10/14 06:37:01;;;;;;;12.57;11.37;;;18.80;99.90;;;;;;5040958;28;20192;-70
2022/10/14 06:39:28;;;;;;;15.23;11.30;;;18.90;99.90;;;;;;5030514;28;20350;-70
2022/10/14 06:41:54;;;;;;;14.77;11.00;;;18.90;99.90;;;;;;5040658;28;20195;-70
2022/10/14 06:44:21;;;;;;;13.30;10.73;;;19.00;99.90;;;;;;5026002;28;20551;-71
2022/10/14 06:46:47;;;;;;;12.17;10.83;;;19.00;99.90;;;;;;5023895;28;20203;-70
2022/10/14 06:49:13;;;;;;;14.43;9.73;;;19.00;99.90;;;;;;5028818;28;20206;-70
2022/10/14 06:51:40;;;;;;;10.00;8.20;;;19.10;99.90;;;;;;5021257;28;20342;-70
2022/10/14 06:54:07;;;;;;;10.53;8.33;;;19.10;99.90;;;;;;5007865;28;20203;-69
2022/10/14 06:56:34;;;;;;;10.73;8.20;;;19.20;99.90;;;;;;5042333;28;20203;-70
2022/10/14 06:59:00;;;;;;;12.07;9.10;;;19.30;99.90;;;;;;5028153;28;20191;-70
2022/10/14 07:01:27;;;;;;;9.83;8.20;;;19.30;99.90;;;;;;5026900;28;20681;-70
2022/10/14 07:03:53;;;;;;;9.57;8.57;;;19.40;99.90;;;;;;5028418;28;20219;-70
2022/10/14 07:06:19;;;;;;;8.53;7.60;;;19.40;99.90;;;;;;5045234;28;20188;-70
2022/10/14 07:08:45;;;;;;;9.93;6.73;;;19.50;99.90;;;;;;5023744;28;20292;-70
2022/10/14 07:11:12;;;;;;;9.10;6.50;;;19.60;99.90;;;;;;5023105;28;20653;-70
2022/10/14 07:13:39;;;;;;;6.83;6.03;;;19.70;99.90;;;;;;5030459;28;20283;-70
2022/10/14 07:16:07;;;;;;;12.60;5.63;;;19.80;99.90;;;;;;5041473;28;20196;-70
2022/10/14 07:18:34;;;;;;;7.50;4.93;;;19.70;99.90;;;;;;5042058;28;20681;-70
2022/10/14 07:21:06;;;;;;;7.83;4.40;;;19.70;99.90;;;;;;5047046;28;20905;-70
2022/10/14 07:23:32;;;;;;;5.23;4.10;;;19.70;99.90;;;;;;5044092;28;20254;-70
2022/10/14 07:26:00;;;;;;;5.27;4.30;;;19.80;99.90;;;;;;5025830;28;20216;-70
2022/10/14 07:28:28;;;;;;;6.60;4.57;;;19.90;99.90;;;;;;5026255;28;20250;-70
2022/10/14 07:31:06;;;;;;;6.00;4.47;;;20.00;99.90;;;;;;5011092;28;20232;-70
2022/10/14 07:33:39;;;;;;;9.30;4.60;;;20.20;99.90;;;;;;5011815;28;20271;-70
2022/10/14 07:36:13;;;;;;;12.43;5.17;;;20.40;99.90;;;;;;5043835;28;20200;-70
2022/10/14 07:38:40;;;;;;;6.93;4.60;;;20.50;99.90;;;;;;5028699;28;20279;-70
2022/10/14 07:41:20;;;;;;;7.40;4.30;;;20.40;99.90;;;;;;5028353;28;20204;-70
2022/10/14 07:44:04;;;;;;;10.57;5.00;;;20.40;99.90;;;;;;5024119;28;20212;-70
2022/10/14 07:46:33;;;;;;;5.87;3.83;;;20.40;99.90;;;;;;5026412;28;20196;-70
2022/10/14 07:49:13;;;;;;;8.00;3.90;;;20.50;99.90;;;;;;5031810;28;20375;-70
2022/10/14 07:51:42;;;;;;;6.43;3.83;;;20.80;99.90;;;;;;5026800;28;20210;-70
2022/10/14 07:54:15;;;;;;;9.50;4.80;;;21.10;99.90;;;;;;5028677;28;20192;-70
2022/10/14 07:56:43;;;;;;;5.63;4.03;;;21.00;99.90;;;;;;5022216;28;20257;-70
2022/10/14 07:59:11;;;;;;;7.77;4.10;;;21.00;99.90;;;;;;5024812;28;20657;-70
2022/10/14 08:01:38;;;;;;;5.47;4.30;;;21.10;99.90;;;;;;5028670;28;20195;-70
2022/10/14 08:04:04;;;;;;;7.13;3.90;;;21.10;99.90;;;;;;5023311;28;20252;-70
2022/10/14 08:06:31;;;;;;;3.87;3.30;;;21.10;99.90;;;;;;5022350;28;21084;-70
2022/10/14 08:08:57;;;;;;;7.20;3.40;;;21.20;99.90;;;;;;5025220;28;20274;-70
2022/10/14 08:11:29;;;;;;;6.17;3.60;;;21.20;99.90;;;;;;5026620;28;20207;-70
2022/10/14 08:13:57;;;;;;;8.13;3.97;;;21.20;99.90;;;;;;5026124;28;20230;-70
2022/10/14 08:16:42;;;;;;;4.70;3.20;;;21.20;99.90;;;;;;5026571;28;20200;-70
2022/10/14 08:19:10;;;;;;;6.40;3.40;;;21.30;99.90;;;;;;5041289;28;20788;-70
2022/10/14 08:21:37;;;;;;;5.20;3.17;;;21.50;99.90;;;;;;5020283;28;20647;-70
2022/10/14 08:24:04;;;;;;;7.40;3.27;;;21.50;99.90;;;;;;5028296;28;20231;-70
2022/10/14 08:26:37;;;;;;;6.40;3.47;;;21.50;99.90;;;;;;5021174;28;20581;-71
2022/10/14 08:29:14;;;;;;;4.37;2.90;;;21.60;99.90;;;;;;5023883;28;20201;-71
2022/10/14 08:31:41;;;;;;;6.07;2.93;;;21.60;99.90;;;;;;5037356;28;20304;-71
2022/10/14 08:34:07;;;;;;;5.63;2.87;;;21.70;99.90;;;;;;5019782;28;20275;-71
2022/10/14 08:36:34;;;;;;;16.17;7.40;;;21.80;99.90;;;;;;5042457;28;20199;-71
2022/10/14 08:39:00;;;;;;;11.93;8.00;;;22.10;99.90;;;;;;5029305;28;20202;-71
2022/10/14 08:42:16;;;;;;;17.63;9.70;;;22.40;99.90;;;;;;5040729;28;20239;-71
2022/10/14 08:44:58;;;;;;;12.88;9.45;;;22.70;99.90;;;;;;5007786;28;20188;-70
2022/10/14 08:47:40;;;;;;;12.87;9.80;;;22.60;99.90;;;;;;5023408;28;20192;-71
2022/10/14 08:50:45;;;;;;;9.90;8.90;;;22.70;99.90;;;;;;5014267;28;20192;-71
2022/10/14 08:53:27;;;;;;;13.75;9.88;;;22.70;99.90;;;;;;5018354;28;20214;-70
2022/10/14 08:55:59;;;;;;;16.83;10.18;;;22.80;99.90;;;;;;5051078;28;20195;-71
2022/10/14 08:58:44;;;;;;;21.60;10.57;;;22.70;99.90;;;;;;5022294;28;20214;-71
2022/10/14 09:01:28;;;;;;;13.90;11.02;;;22.60;99.90;;;;;;5022997;28;20199;-71
2022/10/14 09:04:04;;;;;;;15.83;11.13;;;22.70;99.90;;;;;;5024870;28;20265;-71
2022/10/14 09:06:35;;;;;;;14.85;10.93;;;22.70;99.90;;;;;;5037136;28;20184;-71
2022/10/14 09:09:32;;;;;;;16.30;11.00;;;22.80;99.90;;;;;;5038869;28;20188;-71
2022/10/14 09:12:13;;;;;;;21.35;10.85;;;22.80;99.90;;;;;;5018535;28;20199;-71
2022/10/14 09:14:48;;;;;;;15.13;10.93;;;23.00;99.90;;;;;;5022014;28;20538;-71
2022/10/14 09:17:24;;;;;;;15.43;10.90;;;23.00;99.90;;;;;;5034182;28;20209;-71
2022/10/14 09:20:08;;;;;;;15.95;10.85;;;23.10;99.90;;;;;;5024937;28;20204;-71
2022/10/14 09:22:35;;;;;;;13.95;10.82;;;23.20;99.90;;;;;;5018900;28;20245;-71
2022/10/14 09:25:01;;;;;;;15.07;11.00;;;23.30;99.90;;;;;;5006072;28;20191;-71
2022/10/14 09:27:29;;;;;;;21.08;10.57;;;23.40;99.90;;;;;;5019885;28;20219;-71
2022/10/14 09:30:09;;;;;;;19.83;10.77;;;23.30;99.90;;;;;;5016224;28;20204;-71
2022/10/14 09:32:48;;;;;;;15.02;10.93;;;23.20;99.90;;;;;;5020827;28;20211;-71
2022/10/14 09:35:38;;;;;;;18.17;11.18;;;23.20;99.90;;;;;;5020408;28;20857;-71
2022/10/14 09:38:06;;;;;;;51.30;13.45;;;23.30;99.90;;;;;;5029894;28;20187;-72
2022/10/14 09:40:45;;;;;;;24.55;11.40;;;23.60;99.90;;;;;;5022658;28;20257;-71
2022/10/14 09:43:18;;;;;;;15.50;10.30;;;23.60;99.90;;;;;;5018398;28;20213;-71
2022/10/14 09:46:06;;;;;;;12.50;10.95;;;23.40;99.90;;;;;;5004761;28;20274;-71
2022/10/14 09:48:47;;;;;;;12.00;10.75;;;23.20;99.90;;;;;;5042746;28;20206;-71
2022/10/14 09:51:27;;;;;;;13.02;10.00;;;23.10;99.90;;;;;;5023509;28;20192;-71
2022/10/14 09:53:57;;;;;;;12.57;10.65;;;23.10;99.90;;;;;;5026267;28;20219;-71
2022/10/14 09:56:44;;;;;;;17.48;10.85;;;23.10;99.90;;;;;;5022441;28;20299;-71
2022/10/14 09:59:19;;;;;;;12.15;10.55;;;23.10;99.90;;;;;;5019081;28;20266;-71
2022/10/14 10:01:56;;;;;;;16.48;10.45;;;23.20;99.90;;;;;;5022434;28;21496;-71
2022/10/14 10:04:44;;;;;;;15.10;10.45;;;23.40;99.90;;;;;;5040322;28;20215;-71
2022/10/14 10:07:33;;;;;;;13.35;10.60;;;23.40;99.90;;;;;;5026668;28;20184;-71
2022/10/14 10:10:15;;;;;;;21.65;10.70;;;23.30;99.90;;;;;;5025128;28;20291;-71
2022/10/14 10:12:45;;;;;;;12.07;10.77;;;23.30;99.90;;;;;;5030294;28;20208;-71
2022/10/14 10:15:21;;;;;;;12.48;10.05;;;23.20;99.90;;;;;;5028835;28;20279;-71
2022/10/14 10:17:49;;;;;;;16.08;11.07;;;23.10;99.90;;;;;;5034926;28;20291;-71
2022/10/14 10:20:32;;;;;;;14.98;10.77;;;23.00;99.90;;;;;;5042518;28;20638;-71
2022/10/14 10:23:24;;;;;;;20.38;11.15;;;22.90;99.90;;;;;;5026609;28;20306;-71
2022/10/14 10:25:51;;;;;;;15.73;10.48;;;22.80;99.90;;;;;;5023650;28;20188;-71
2022/10/14 10:28:30;;;;;;;17.50;11.02;;;22.80;99.90;;;;;;5021909;28;20759;-71
2022/10/14 10:31:37;;;;;;;19.38;10.63;;;22.80;99.90;;;;;;5005196;28;20216;-71
2022/10/14 10:34:16;;;;;;;14.70;10.93;;;23.10;99.90;;;;;;5030185;28;20215;-71
2022/10/14 10:36:56;;;;;;;14.68;10.18;;;23.00;99.90;;;;;;5022980;28;20664;-71
2022/10/14 10:39:41;;;;;;;15.25;11.18;;;22.90;99.90;;;;;;5028037;28;20191;-71
2022/10/14 10:42:30;;;;;;;14.88;10.10;;;22.90;99.90;;;;;;5024491;28;20302;-71
2022/10/14 10:45:14;;;;;;;15.48;11.15;;;22.80;99.90;;;;;;5028089;28;20246;-71
2022/10/14 10:48:19;;;;;;;16.33;10.35;;;22.70;99.90;;;;;;5024830;28;20185;-71
2022/10/14 10:51:06;;;;;;;17.63;10.32;;;22.60;99.90;;;;;;5020398;28;20207;-71
2022/10/14 10:53:44;;;;;;;15.63;10.37;;;22.50;99.90;;;;;;5023088;28;20659;-71
2022/10/14 10:56:33;;;;;;;16.05;10.32;;;22.40;99.90;;;;;;5027442;28;20283;-71
2022/10/14 10:59:29;;;;;;;14.47;10.90;;;22.40;99.90;;;;;;5036951;28;20237;-71
2022/10/14 11:02:56;;;;;;;16.00;11.17;;;22.40;99.90;;;;;;5020416;28;20192;-71
2022/10/14 11:05:37;;;;;;;16.35;11.68;;;22.40;99.90;;;;;;5002937;28;20265;-71
2022/10/14 11:12:02;;;;;;;20.63;10.60;;;22.30;99.90;;;;;;5029925;28;20594;-71
2022/10/14 11:15:15;;;;;;;15.98;10.52;;;22.20;99.90;;;;;;5045380;28;20179;-71
2022/10/14 11:18:19;;;;;;;17.77;10.10;;;22.20;99.90;;;;;;5044541;28;20195;-71
2022/10/14 11:21:25;;;;;;;15.93;11.57;;;22.20;99.90;;;;;;5021481;28;20187;-71
2022/10/14 11:24:23;;;;;;;23.85;11.38;;;22.20;99.90;;;;;;5019895;28;20215;-71
2022/10/14 11:27:22;;;;;;;16.95;11.77;;;22.10;99.90;;;;;;5025745;28;20195;-71
2022/10/14 11:30:27;;;;;;;16.25;11.15;;;22.10;99.90;;;;;;5028137;28;20196;-71
2022/10/14 11:33:08;;;;;;;14.43;10.10;;;22.00;99.90;;;;;;5030104;28;20263;-71
2022/10/14 11:36:00;;;;;;;18.13;10.73;;;22.00;99.90;;;;;;5028741;28;20184;-71
2022/10/14 11:38:50;;;;;;;18.33;11.37;;;22.00;99.90;;;;;;5025460;28;20195;-71
2022/10/14 11:42:01;;;;;;;15.17;10.77;;;22.00;99.90;;;;;;5042101;28;20180;-71
2022/10/14 11:44:37;;;;;;;18.30;12.00;;;21.90;99.90;;;;;;5027203;28;20224;-71
2022/10/14 11:47:28;;;;;;;17.77;11.90;;;21.90;99.90;;;;;;5025911;28;20184;-71
2022/10/14 11:50:12;;;;;;;17.97;11.87;;;22.00;99.90;;;;;;5045287;28;20644;-71
2022/10/14 11:52:51;;;;;;;14.82;11.55;;;22.00;99.90;;;;;;5028969;28;20399;-71
2022/10/14 11:55:27;;;;;;;19.80;11.63;;;22.00;99.90;;;;;;5029436;28;20175;-71
2022/10/14 11:58:05;;;;;;;21.43;11.67;;;22.10;99.90;;;;;;5030576;28;20179;-71
2022/10/14 12:00:53;;;;;;;15.17;11.33;;;22.00;99.90;;;;;;5026281;28;20964;-71
2022/10/14 12:03:42;;;;;;;14.03;11.70;;;22.00;99.90;;;;;;5036391;28;20200;-71
2022/10/14 12:06:40;;;;;;;12.50;11.20;;;22.00;99.90;;;;;;5026030;28;20181;-71
2022/10/14 12:09:24;;;;;;;17.07;11.73;;;22.10;99.90;;;;;;5044113;28;20184;-74
2022/10/14 12:12:01;;;;;;;14.90;11.33;;;22.00;99.90;;;;;;5026095;28;20545;-71
2022/10/14 12:14:54;;;;;;;14.90;10.43;;;22.10;99.90;;;;;;5036042;28;20290;-71
2022/10/14 12:17:53;;;;;;;15.03;11.57;;;22.10;99.90;;;;;;5023763;28;20204;-71
2022/10/14 12:20:36;;;;;;;15.27;10.38;;;22.10;99.90;;;;;;5023631;28;20192;-71
2022/10/14 12:23:07;;;;;;;13.35;9.90;;;22.10;99.90;;;;;;5011902;28;20894;-71
2022/10/14 12:26:05;;;;;;;16.70;10.68;;;22.10;99.90;;;;;;5044913;28;20284;-71
2022/10/14 12:28:36;;;;;;;12.73;10.13;;;22.10;99.90;;;;;;5026285;28;20195;-71
2022/10/14 12:31:27;;;;;;;12.85;10.38;;;22.10;99.90;;;;;;5039573;28;20284;-71
2022/10/14 12:34:16;;;;;;;14.25;10.30;;;22.10;99.90;;;;;;5023588;28;20266;-71
2022/10/14 12:36:49;;;;;;;15.33;11.37;;;22.10;99.90;;;;;;5020957;28;20215;-71
2022/10/14 12:39:19;;;;;;;11.83;10.60;;;22.10;99.90;;;;;;5042330;28;20184;-71
2022/10/14 12:41:54;;;;;;;14.53;9.60;;;22.20;99.90;;;;;;5010553;28;20180;-72
2022/10/14 12:44:34;;;;;;;10.50;9.27;;;22.10;99.90;;;;;;5036465;28;20239;-71
2022/10/14 12:47:04;;;;;;;13.73;9.43;;;22.10;99.90;;;;;;5021076;28;20184;-71
2022/10/14 12:49:35;;;;;;;11.80;9.20;;;22.10;99.90;;;;;;5024498;28;21024;-71
2022/10/14 12:52:08;;;;;;;13.20;9.10;;;22.10;99.90;;;;;;5011626;28;20194;-71
2022/10/14 12:54:37;;;;;;;12.80;9.20;;;22.10;99.90;;;;;;5028329;28;20188;-71
2022/10/14 12:57:18;;;;;;;13.10;9.40;;;22.10;99.90;;;;;;5030423;28;20200;-71
2022/10/14 12:59:54;;;;;;;12.57;8.80;;;22.10;99.90;;;;;;5042212;28;20530;-71
2022/10/14 13:02:57;;;;;;;12.90;9.43;;;22.20;99.90;;;;;;5028028;28;20196;-71
2022/10/14 13:05:41;;;;;;;15.10;8.52;;;22.30;99.90;;;;;;5006653;28;20206;-71
2022/10/14 13:08:22;;;;;;;14.00;8.55;;;22.40;99.90;;;;;;5021986;28;20279;-71
2022/10/14 13:10:58;;;;;;;12.63;8.63;;;22.40;99.90;;;;;;5025971;28;20188;-71
2022/10/14 13:16:22;;;;;;;16.73;8.35;;;22.40;99.90;;;;;;5040671;28;20215;-71